Columbus, Ohio
Current Conditions -  °F | °C
As of 10:51 AM on Sunday 23 Nov 2014 (Local Time) from KCMH Reporting Station
Broken Clouds Broken Clouds  
Wind Chill: 53°   Ceiling: 3800
Heat Index: 53°   Visibility: 10mi
Dew Point: 37°   Wind: 6mph
Humidity: 55%   Direction: 130°SE
Pressure: 29.97"   Gusts: NA
Location:  39.96°N, 83°W
Report Text: KCMH 231551Z 13005KT 10SM BKN038 BKN060 12/03 A2997 RMK AO2 PRESFR SLP149 T01170028 $
Loading
Personal Weather Stations






























Interactive Weather Map New forecast layout! Learn more

10-Day Weather Forecast

Advertisements
Track Severe Weather on mobile